Terminal Aerodrome Forecast
Issued by NWS

Home | Current Version | Previous Version | Text Only | Print | Product List | Glossary On
Versions: 1 2 3 4 5 6 7 8 9 10 11 12
000
FTUS45 KRIW 282320
TAFLND
TAF
KLND 282320Z 2900/2924 VRB06KT P6SM SKC
     FM290900 23008KT P6SM VCSH SCT090 BKN130
     FM291300 VRB06KT P6SM SCT080 BKN120
     FM292000 20012G20KT P6SM SCT060 BKN080=

USA.gov is the U.S. government's official web portal to all federal, state and local government web resources and services.